Time;durP1;ratioP1;P1;durP2;ratioP2;P2;SDS_P1;SDS_P2;PMS_P1;PMS_P2;Temp;Humidity;BMP_temperature;BMP_pressure;BME280_temperature;BME280_humidity;BME280_pressure;Samples;Min_cycle;Max_cycle;Signal;HPM_P1;HPM_P2
2023/07/03 00:00:14;;;;;;;15.55;2.72;;;15.30;99.90;;;;;;5030613;28;20219;-72
2023/07/03 00:02:40;;;;;;;16.15;3.97;;;15.30;99.90;;;;;;5030781;28;20540;-72
2023/07/03 00:05:08;;;;;;;15.73;3.10;;;15.20;99.90;;;;;;5030838;28;20188;-72
2023/07/03 00:07:34;;;;;;;16.40;3.58;;;;;;;;;;5030678;28;20228;-72
2023/07/03 00:10:00;;;;;;;17.40;3.22;;;;;;;;;;5030569;28;20249;-72
2023/07/03 00:12:26;;;;;;;11.90;2.92;;;;;;;;;;5030650;28;20170;-71
2023/07/03 00:14:52;;;;;;;27.63;3.63;;;15.10;1.00;;;;;;5030677;28;20243;-70
2023/07/03 00:17:17;;;;;;;19.88;4.32;;;15.10;1.00;;;;;;5030703;28;20180;-73
2023/07/03 00:19:43;;;;;;;17.77;3.53;;;15.10;99.90;;;;;;5030756;28;20173;-75
2023/07/03 00:22:09;;;;;;;23.80;3.90;;;15.10;99.90;;;;;;5030838;28;20177;-78
2023/07/03 00:24:35;;;;;;;19.58;3.67;;;;;;;;;;5030742;28;20178;-76
2023/07/03 00:27:01;;;;;;;21.50;3.60;;;15.00;99.90;;;;;;5022846;28;20280;-75
2023/07/03 00:29:30;;;;;;;12.40;3.15;;;14.90;99.90;;;;;;5025099;28;20264;-75
2023/07/03 00:31:57;;;;;;;13.77;2.90;;;15.00;99.90;;;;;;5029059;28;20192;-75
2023/07/03 00:34:23;;;;;;;13.60;3.33;;;15.00;99.90;;;;;;5012170;28;20194;-74
2023/07/03 00:36:48;;;;;;;18.90;3.60;;;15.10;99.90;;;;;;5034090;28;20166;-77
2023/07/03 00:39:14;;;;;;;17.08;3.28;;;15.20;99.90;;;;;;5034355;28;20632;-77
2023/07/03 00:41:41;;;;;;;17.80;3.00;;;15.10;99.90;;;;;;5033524;28;20189;-77
2023/07/03 00:44:11;;;;;;;18.00;3.05;;;15.00;99.90;;;;;;5033792;28;20178;-79
2023/07/03 00:46:39;;;;;;;17.05;2.88;;;15.00;99.90;;;;;;5014497;28;20214;-73
2023/07/03 00:49:05;;;;;;;15.30;2.47;;;15.00;99.90;;;;;;5019536;28;21343;-72
2023/07/03 00:51:31;;;;;;;16.08;2.65;;;15.10;99.90;;;;;;5033697;28;20652;-72
2023/07/03 00:53:57;;;;;;;18.45;3.00;;;;;;;;;;5033499;28;20255;-72
2023/07/03 00:56:23;;;;;;;16.35;2.15;;;;;;;;;;5033236;28;20208;-71
2023/07/03 00:58:48;;;;;;;14.57;2.58;;;14.90;99.90;;;;;;5033808;28;20621;-72
2023/07/03 01:01:28;;;;;;;13.25;2.38;;;15.20;99.90;;;;;;5033702;28;20209;-72
2023/07/03 01:04:01;;;;;;;17.13;2.38;;;15.00;99.90;;;;;;5033609;28;20201;-73
2023/07/03 01:06:33;;;;;;;22.50;3.25;;;15.00;52.10;;;;;;5033552;28;20205;-74
2023/07/03 01:09:00;;;;;;;15.35;2.58;;;15.10;99.90;;;;;;5033475;28;20719;-72
2023/07/03 01:11:27;;;;;;;14.95;2.85;;;15.10;1.00;;;;;;5033681;28;20640;-73
2023/07/03 01:13:57;;;;;;;15.52;3.35;;;15.10;1.00;;;;;;5033691;28;20176;-72
2023/07/03 01:16:23;;;;;;;15.65;2.78;;;;;;;;;;5033636;28;20184;-72
2023/07/03 01:18:53;;;;;;;16.15;3.20;;;15.10;99.90;;;;;;5033396;28;20173;-72
2023/07/03 01:21:28;;;;;;;12.82;2.60;;;15.10;1.00;;;;;;5033456;28;20224;-72
2023/07/03 01:24:15;;;;;;;17.65;2.85;;;15.10;99.90;;;;;;5033389;28;20196;-70
2023/07/03 01:26:43;;;;;;;15.00;3.33;;;15.10;1.00;;;;;;5065256;28;20312;-70
2023/07/03 01:29:10;;;;;;;12.88;3.05;;;15.00;1.00;;;;;;5033050;28;20615;-70
2023/07/03 01:31:38;;;;;;;15.48;3.20;;;15.20;1.00;;;;;;5033257;28;20205;-70
2023/07/03 01:34:06;;;;;;;8.88;2.78;;;15.10;1.00;;;;;;5033082;28;20169;-71
2023/07/03 01:36:33;;;;;;;12.77;2.30;;;14.90;1.00;;;;;;5033114;28;20659;-70
2023/07/03 01:39:00;;;;;;;11.90;2.45;;;15.00;1.00;;;;;;5033230;28;20184;-70
2023/07/03 01:41:27;;;;;;;15.80;2.63;;;15.00;1.00;;;;;;5033164;28;20648;-70
2023/07/03 01:43:53;;;;;;;14.80;2.78;;;15.20;1.00;;;;;;5033134;28;20371;-69
2023/07/03 01:46:19;;;;;;;13.82;2.67;;;;;;;;;;5032506;28;20618;-69
2023/07/03 01:48:45;;;;;;;10.52;2.63;;;15.20;15.80;;;;;;5032870;28;20197;-70
2023/07/03 01:51:18;;;;;;;16.17;2.72;;;14.90;20.40;;;;;;5032939;28;20216;-70
2023/07/03 01:54:01;;;;;;;12.65;2.47;;;14.90;99.90;;;;;;5032796;28;20176;-70
2023/07/03 01:56:32;;;;;;;15.15;2.63;;;14.90;44.80;;;;;;5031368;28;20178;-69
2023/07/03 01:59:28;;;;;;;14.85;2.00;;;14.70;10.20;;;;;;5032656;28;20166;-69
2023/07/03 02:02:05;;;;;;;11.27;2.35;;;14.90;99.90;;;;;;5030862;28;20190;-69
2023/07/03 02:04:36;;;;;;;14.93;2.28;;;14.50;74.30;;;;;;5032298;28;20231;-69
2023/07/03 02:07:03;;;;;;;7.85;1.88;;;14.60;99.90;;;;;;5030978;28;20220;-69
2023/07/03 02:09:30;;;;;;;10.60;2.40;;;14.70;99.90;;;;;;5032229;28;20213;-70
2023/07/03 02:11:56;;;;;;;12.27;2.25;;;14.70;99.90;;;;;;5032215;28;20201;-68
2023/07/03 02:14:24;;;;;;;13.60;2.33;;;14.40;99.90;;;;;;5032255;28;20214;-69
2023/07/03 02:16:51;;;;;;;16.35;2.20;;;14.50;99.90;;;;;;5028907;28;20223;-73
2023/07/03 02:19:16;;;;;;;14.70;2.10;;;14.60;99.90;;;;;;5032220;28;20181;-73
2023/07/03 02:21:46;;;;;;;8.70;2.50;;;14.50;22.70;;;;;;5032007;28;20177;-72
2023/07/03 02:24:12;;;;;;;14.18;2.00;;;14.40;25.50;;;;;;5032252;28;20170;-71
2023/07/03 02:26:38;;;;;;;8.48;1.83;;;14.30;62.70;;;;;;5032452;28;20206;-72
2023/07/03 02:29:03;;;;;;;19.48;2.50;;;14.50;99.90;;;;;;5031667;28;20659;-73
2023/07/03 02:31:29;;;;;;;12.35;2.03;;;14.40;53.20;;;;;;5031755;28;20708;-73
2023/07/03 02:33:55;;;;;;;8.25;1.80;;;14.40;99.90;;;;;;5031805;28;20178;-72
2023/07/03 02:36:20;;;;;;;14.13;2.17;;;14.40;99.90;;;;;;5029871;28;20268;-72
2023/07/03 02:38:46;;;;;;;10.57;1.77;;;14.10;99.90;;;;;;5032054;28;20166;-70
2023/07/03 02:41:12;;;;;;;11.68;1.85;;;14.10;99.90;;;;;;5031480;28;20182;-72
2023/07/03 02:43:37;;;;;;;14.95;2.28;;;;;;;;;;5031552;28;20178;-70
2023/07/03 02:46:05;;;;;;;14.40;1.67;;;14.20;99.90;;;;;;5031345;28;20220;-71
2023/07/03 02:48:30;;;;;;;10.73;2.13;;;14.10;99.90;;;;;;5012080;28;20179;-70
2023/07/03 02:50:56;;;;;;;7.53;2.00;;;14.10;99.90;;;;;;5026192;28;20186;-70
2023/07/03 02:53:22;;;;;;;15.10;2.75;;;14.00;99.90;;;;;;5031208;28;20679;-82
2023/07/03 02:55:53;;;;;;;17.00;1.80;;;13.90;99.90;;;;;;5029528;28;20178;-82
2023/07/03 02:58:19;;;;;;;8.32;1.63;;;14.10;99.90;;;;;;5020230;28;20182;-82
2023/07/03 03:00:46;;;;;;;15.40;1.83;;;14.10;99.90;;;;;;5020030;28;20173;-82
2023/07/03 03:03:13;;;;;;;14.13;1.92;;;14.00;99.90;;;;;;5025526;28;20517;-82
2023/07/03 03:05:39;;;;;;;11.13;1.65;;;14.10;99.90;;;;;;5031139;28;20199;-83
2023/07/03 03:08:05;;;;;;;6.47;1.38;;;14.10;99.90;;;;;;5031640;28;20174;-71
2023/07/03 03:10:30;;;;;;;16.13;1.73;;;14.10;99.90;;;;;;5030843;28;20715;-72
2023/07/03 03:12:56;;;;;;;10.05;1.50;;;14.10;99.90;;;;;;5031455;28;20525;-73
2023/07/03 03:15:21;;;;;;;12.30;1.73;;;14.00;99.90;;;;;;5030551;28;20202;-74
2023/07/03 03:17:47;;;;;;;9.13;1.70;;;13.50;99.90;;;;;;5030174;28;20174;-78
2023/07/03 03:20:13;;;;;;;8.90;2.08;;;14.10;99.90;;;;;;5030765;28;20178;-77
2023/07/03 03:22:40;;;;;;;11.05;1.40;;;13.80;99.90;;;;;;5031496;28;20189;-78
2023/07/03 03:25:06;;;;;;;7.35;1.63;;;14.00;99.90;;;;;;5030829;28;20193;-78
2023/07/03 03:27:32;;;;;;;11.60;1.58;;;14.10;99.90;;;;;;5031014;28;20700;-77
2023/07/03 03:29:57;;;;;;;11.98;1.60;;;14.60;99.90;;;;;;5030613;28;20232;-78
2023/07/03 03:32:23;;;;;;;13.20;1.88;;;14.00;99.90;;;;;;5030851;28;20703;-74
2023/07/03 03:34:50;;;;;;;13.63;1.98;;;14.00;99.90;;;;;;5030654;28;20721;-78
2023/07/03 03:37:16;;;;;;;10.23;1.73;;;14.00;99.90;;;;;;5031247;28;20227;-79
2023/07/03 03:39:42;;;;;;;10.32;2.38;;;;;;;;;;5030366;28;20665;-77
2023/07/03 03:42:09;;;;;;;7.80;1.75;;;14.00;99.90;;;;;;5030762;28;20181;-76
2023/07/03 03:44:35;;;;;;;12.70;1.90;;;14.00;99.90;;;;;;5030869;28;20636;-76
2023/07/03 03:47:01;;;;;;;9.45;1.50;;;13.90;99.90;;;;;;5030742;28;20213;-76
2023/07/03 03:49:27;;;;;;;10.02;1.67;;;13.90;99.90;;;;;;5030853;28;20174;-76
2023/07/03 03:51:52;;;;;;;8.68;2.08;;;13.90;99.90;;;;;;5030790;28;20178;-76
2023/07/03 03:54:19;;;;;;;9.32;1.48;;;13.90;99.90;;;;;;5030890;28;20563;-76
2023/07/03 03:56:45;;;;;;;14.80;1.60;;;13.90;99.90;;;;;;5030710;28;20177;-75
2023/07/03 03:59:10;;;;;;;9.00;1.85;;;13.90;99.90;;;;;;5030835;28;20528;-75
2023/07/03 04:01:36;;;;;;;11.07;1.70;;;;;;;;;;5030463;28;20174;-75
2023/07/03 04:04:02;;;;;;;15.55;2.30;;;13.90;99.90;;;;;;5031034;28;20319;-74
2023/07/03 04:06:28;;;;;;;10.18;1.60;;;13.90;99.90;;;;;;5030593;28;20666;-75
2023/07/03 04:08:58;;;;;;;8.93;1.50;;;13.90;99.90;;;;;;5032435;28;20717;-74
2023/07/03 04:11:28;;;;;;;14.83;1.80;;;13.70;99.90;;;;;;5034944;28;20389;-74
2023/07/03 04:13:54;;;;;;;9.73;1.75;;;13.70;99.90;;;;;;5034696;28;20243;-73
2023/07/03 04:16:20;;;;;;;12.35;1.50;;;13.80;99.90;;;;;;5034694;28;20178;-73
2023/07/03 04:18:45;;;;;;;14.50;1.90;;;13.90;99.90;;;;;;5034760;28;20169;-74
2023/07/03 04:21:12;;;;;;;9.80;1.80;;;13.90;99.90;;;;;;5034693;28;20643;-74
2023/07/03 04:23:37;;;;;;;9.02;1.75;;;;;;;;;;5034593;28;20170;-77
2023/07/03 04:26:03;;;;;;;6.63;1.40;;;14.00;99.90;;;;;;5034631;28;20214;-74
2023/07/03 04:28:29;;;;;;;15.70;1.73;;;14.00;99.90;;;;;;5033059;28;20628;-73
2023/07/03 04:30:55;;;;;;;8.45;2.20;;;13.70;99.90;;;;;;5034451;28;20170;-74
2023/07/03 04:33:20;;;;;;;10.25;1.65;;;13.80;99.90;;;;;;5034419;28;20183;-73
2023/07/03 04:35:47;;;;;;;11.23;1.70;;;13.90;99.90;;;;;;5034454;28;20577;-74
2023/07/03 04:38:17;;;;;;;11.55;1.70;;;13.80;99.90;;;;;;5034272;28;20177;-74
2023/07/03 04:40:43;;;;;;;14.27;2.17;;;13.70;99.90;;;;;;5034027;28;20590;-78
2023/07/03 04:43:09;;;;;;;13.33;1.93;;;13.90;99.90;;;;;;5033933;28;20196;-77
2023/07/03 04:45:42;;;;;;;12.05;2.03;;;13.80;99.90;;;;;;5033986;28;20629;-78
2023/07/03 04:48:08;;;;;;;14.60;1.95;;;13.70;99.90;;;;;;5034028;28;20710;-79
2023/07/03 04:50:33;;;;;;;9.63;1.83;;;13.70;99.90;;;;;;5030483;28;20183;-79
2023/07/03 04:52:59;;;;;;;12.50;2.15;;;13.90;99.90;;;;;;5014359;28;20232;-79
2023/07/03 04:55:24;;;;;;;13.02;1.70;;;13.80;99.90;;;;;;5014214;28;20174;-79
2023/07/03 04:57:50;;;;;;;9.93;1.80;;;14.00;99.90;;;;;;5014137;28;20178;-79
2023/07/03 05:00:18;;;;;;;11.25;1.90;;;14.10;99.90;;;;;;5014060;28;20645;-77
2023/07/03 05:02:45;;;;;;;14.45;1.98;;;14.00;99.90;;;;;;5014250;28;20466;-75
2023/07/03 05:05:13;;;;;;;11.90;1.60;;;13.80;99.90;;;;;;5014120;28;20185;-77
2023/07/03 05:07:39;;;;;;;10.80;2.30;;;14.20;99.90;;;;;;5013887;28;20256;-77
2023/07/03 05:10:07;;;;;;;12.48;2.45;;;14.10;99.90;;;;;;5013801;28;20222;-78
2023/07/03 05:12:33;;;;;;;11.52;2.08;;;14.10;99.90;;;;;;5014437;28;20737;-78
2023/07/03 05:14:59;;;;;;;12.93;1.73;;;14.10;99.90;;;;;;5014257;28;20197;-76
2023/07/03 05:17:25;;;;;;;10.43;1.85;;;;;;;;;;5014025;28;20210;-77
2023/07/03 05:19:50;;;;;;;14.90;2.47;;;14.20;99.90;;;;;;5013311;28;20561;-75
2023/07/03 05:22:16;;;;;;;9.95;1.90;;;14.50;99.90;;;;;;5013638;28;20171;-75
2023/07/03 05:24:42;;;;;;;13.43;2.47;;;;;;;;;;5013605;28;20253;-74
2023/07/03 05:27:08;;;;;;;12.68;1.88;;;14.20;99.90;;;;;;5012651;28;20272;-76
2023/07/03 05:29:34;;;;;;;14.70;2.30;;;;;;;;;;5012611;28;20580;-76
2023/07/03 05:32:01;;;;;;;6.82;1.83;;;14.50;99.90;;;;;;5013353;28;20181;-76
2023/07/03 05:34:27;;;;;;;14.90;2.08;;;;;;;;;;5027943;28;20173;-76
2023/07/03 05:36:53;;;;;;;17.80;2.90;;;;;;;;;;5033395;28;20502;-76
2023/07/03 05:39:19;;;;;;;12.07;2.20;;;14.40;99.90;;;;;;5032981;28;20573;-75
2023/07/03 05:41:45;;;;;;;11.77;1.83;;;;;;;;;;5032949;28;20690;-76
2023/07/03 05:44:11;;;;;;;13.43;2.08;;;;;;;;;;5032969;28;20166;-76
2023/07/03 05:46:37;;;;;;;13.23;1.98;;;;;;;;;;5032637;28;20747;-79
2023/07/03 05:49:03;;;;;;;6.47;1.20;;;14.90;4.20;;;;;;5033124;28;20349;-80
2023/07/03 05:51:29;;;;;;;15.73;2.13;;;;;;;;;;5032782;28;20265;-80
2023/07/03 05:53:55;;;;;;;14.35;1.70;;;14.90;1.00;;;;;;5032598;28;20663;-80
2023/07/03 05:56:21;;;;;;;12.55;1.95;;;14.90;56.90;;;;;;5033321;28;20170;-86
2023/07/03 05:58:47;;;;;;;15.25;1.58;;;;;;;;;;5032433;28;20243;-81
2023/07/03 06:01:12;;;;;;;8.70;1.50;;;14.90;1.00;;;;;;5032253;28;20178;-80
2023/07/03 06:03:43;;;;;;;13.00;1.88;;;15.10;99.90;;;;;;5032063;28;20268;-81
2023/07/03 06:06:09;;;;;;;6.57;1.77;;;15.20;1.00;;;;;;5028911;28;20186;-73
2023/07/03 06:08:35;;;;;;;16.52;2.05;;;;;;;;;;5032001;28;20260;-73
2023/07/03 06:11:01;;;;;;;9.30;1.65;;;15.20;99.90;;;;;;5031589;28;20210;-74
2023/07/03 06:13:27;;;;;;;11.27;1.90;;;;;;;;;;5032505;28;20170;-74
2023/07/03 06:15:53;;;;;;;11.02;1.73;;;;;;;;;;5032498;28;20284;-74
2023/07/03 06:18:19;;;;;;;7.72;1.67;;;;;;;;;;5032540;28;20178;-73
2023/07/03 06:20:44;;;;;;;15.48;2.45;;;15.30;99.90;;;;;;5032316;28;20652;-75
2023/07/03 06:23:10;;;;;;;14.15;1.52;;;15.60;1.00;;;;;;5032269;28;20173;-73
2023/07/03 06:25:36;;;;;;;9.10;2.03;;;;;;;;;;5032207;28;20712;-74
2023/07/03 06:28:02;;;;;;;12.40;2.30;;;15.30;1.00;;;;;;5032471;28;20170;-73
2023/07/03 06:30:27;;;;;;;17.60;2.25;;;15.70;99.90;;;;;;5032159;28;20308;-73
2023/07/03 06:32:53;;;;;;;10.13;1.75;;;15.60;99.90;;;;;;5031132;28;20262;-73
2023/07/03 06:35:19;;;;;;;13.43;1.95;;;15.70;1.00;;;;;;5031990;28;20228;-72
2023/07/03 06:37:44;;;;;;;11.65;2.17;;;15.70;99.90;;;;;;5031981;28;20178;-79
2023/07/03 06:40:13;;;;;;;14.98;2.25;;;15.80;1.00;;;;;;5032339;28;20170;-78
2023/07/03 06:42:38;;;;;;;11.68;2.05;;;15.90;99.90;;;;;;5032313;28;20261;-78
2023/07/03 06:45:04;;;;;;;8.25;1.75;;;;;;;;;;5032157;28;20197;-77
2023/07/03 06:47:30;;;;;;;10.10;1.92;;;;;;;;;;5032617;28;20208;-78
2023/07/03 06:49:59;;;;;;;13.27;2.33;;;16.30;99.90;;;;;;5031417;28;20207;-79
2023/07/03 06:52:25;;;;;;;15.15;1.90;;;16.10;1.00;;;;;;5032311;28;20182;-71
2023/07/03 06:54:51;;;;;;;10.68;1.95;;;;;;;;;;5031130;28;20166;-73
2023/07/03 06:57:17;;;;;;;13.80;1.85;;;;;;;;;;5030697;28;20193;-74
2023/07/03 06:59:43;;;;;;;10.63;1.63;;;;;;;;;;5029894;28;20177;-74
2023/07/03 07:02:09;;;;;;;12.23;1.55;;;;;;;;;;5029049;28;20181;-74
2023/07/03 07:04:34;;;;;;;7.45;1.70;;;16.00;1.00;;;;;;5033595;28;20178;-73
2023/07/03 07:07:00;;;;;;;13.02;2.22;;;;;;;;;;5034114;28;20575;-77
2023/07/03 07:09:26;;;;;;;9.65;1.50;;;15.80;99.90;;;;;;5033862;28;20214;-72
2023/07/03 07:11:52;;;;;;;11.07;1.88;;;;;;;;;;5030279;28;20641;-71
2023/07/03 07:14:18;;;;;;;12.27;1.60;;;15.80;1.00;;;;;;5030958;28;20256;-69
2023/07/03 07:16:44;;;;;;;14.57;1.92;;;15.70;1.00;;;;;;5031123;28;20640;-69
2023/07/03 07:19:11;;;;;;;13.80;1.88;;;15.90;99.90;;;;;;5030671;28;20533;-69
2023/07/03 07:21:38;;;;;;;10.50;1.60;;;15.90;99.90;;;;;;5031060;28;20185;-71
2023/07/03 07:24:19;;;;;;;15.05;1.63;;;15.90;2.30;;;;;;5030780;28;20169;-69
2023/07/03 07:26:46;;;;;;;10.23;1.88;;;15.90;99.90;;;;;;5030684;28;20209;-70
2023/07/03 07:29:12;;;;;;;9.27;1.92;;;15.70;99.90;;;;;;5031079;28;20212;-71
2023/07/03 07:31:37;;;;;;;11.43;2.15;;;15.70;1.00;;;;;;5029375;28;20605;-72
2023/07/03 07:34:04;;;;;;;10.23;2.20;;;15.60;1.00;;;;;;5030744;28;20235;-71
2023/07/03 07:36:30;;;;;;;10.10;1.92;;;15.80;1.00;;;;;;5030798;28;20183;-71
2023/07/03 07:38:56;;;;;;;11.35;2.00;;;;;;;;;;5030922;28;20166;-68
2023/07/03 07:41:24;;;;;;;7.85;1.40;;;16.10;1.00;;;;;;5028487;28;20174;-69
2023/07/03 07:43:51;;;;;;;8.57;1.80;;;16.30;1.00;;;;;;5018613;28;20177;-67
2023/07/03 07:46:17;;;;;;;14.02;2.45;;;16.40;1.00;;;;;;5029321;28;20252;-68
2023/07/03 07:48:45;;;;;;;15.70;2.20;;;16.70;99.90;;;;;;5029944;28;20224;-69
2023/07/03 07:51:11;;;;;;;14.82;1.98;;;16.70;19.90;;;;;;5030443;28;20178;-72
2023/07/03 07:53:38;;;;;;;13.70;2.13;;;16.70;1.00;;;;;;5029166;28;20244;-68
2023/07/03 07:56:08;;;;;;;13.93;2.20;;;16.90;1.00;;;;;;5029198;28;20249;-71
2023/07/03 07:58:35;;;;;;;12.60;2.50;;;17.00;99.90;;;;;;5029900;28;20605;-70
2023/07/03 08:01:01;;;;;;;11.77;2.13;;;;;;;;;;5030056;28;20166;-71
2023/07/03 08:03:27;;;;;;;14.23;2.13;;;16.00;99.90;;;;;;5028977;28;20205;-70
2023/07/03 08:05:57;;;;;;;11.88;1.77;;;16.00;1.00;;;;;;5030447;28;20529;-70
2023/07/03 08:08:23;;;;;;;12.98;2.20;;;;;;;;;;5030318;28;20209;-72
2023/07/03 08:10:53;;;;;;;23.20;3.00;;;16.40;1.00;;;;;;5045941;28;20229;-71
2023/07/03 08:13:19;;;;;;;16.60;2.15;;;16.50;1.00;;;;;;5030255;28;20271;-71
2023/07/03 08:15:45;;;;;;;17.23;2.58;;;16.90;83.00;;;;;;5030692;28;20581;-70
2023/07/03 08:18:11;;;;;;;15.00;2.35;;;;;;;;;;5030368;28;20170;-71
2023/07/03 08:20:37;;;;;;;15.75;2.97;;;16.90;1.00;;;;;;5030141;28;20269;-70
2023/07/03 08:23:03;;;;;;;15.00;2.00;;;;;;;;;;5029281;28;20610;-70
2023/07/03 08:25:29;;;;;;;19.65;2.38;;;;;;;;;;5029253;28;20181;-71
2023/07/03 08:27:55;;;;;;;15.93;3.17;;;;;;;;;;5030341;28;20225;-69
2023/07/03 08:30:22;;;;;;;15.70;2.50;;;16.70;99.90;;;;;;5030522;28;20178;-70
2023/07/03 08:32:48;;;;;;;16.70;2.65;;;17.20;3.40;;;;;;5030107;28;20181;-71
2023/07/03 08:35:14;;;;;;;16.67;3.13;;;;;;;;;;5030279;28;20159;-68
2023/07/03 08:37:39;;;;;;;15.32;3.15;;;17.60;1.00;;;;;;5013118;28;20174;-68
2023/07/03 08:40:07;;;;;;;13.55;2.65;;;17.70;99.90;;;;;;5009990;28;20177;-69
2023/07/03 08:42:38;;;;;;;14.60;3.10;;;17.80;1.00;;;;;;5009554;28;20175;-69
2023/07/03 08:45:06;;;;;;;16.88;3.08;;;17.80;99.90;;;;;;5009477;28;20626;-70
2023/07/03 08:47:33;;;;;;;19.08;2.75;;;18.00;1.00;;;;;;5009059;28;20214;-70
2023/07/03 08:50:02;;;;;;;13.82;3.17;;;18.00;1.00;;;;;;5009951;28;20532;-70
2023/07/03 08:52:39;;;;;;;12.70;2.67;;;18.00;1.00;;;;;;5009991;28;20177;-70
2023/07/03 08:55:07;;;;;;;12.85;2.38;;;17.60;1.00;;;;;;5010192;28;20712;-70
2023/07/03 08:57:35;;;;;;;13.90;2.80;;;17.80;99.90;;;;;;5014135;28;20312;-70
2023/07/03 09:00:05;;;;;;;15.02;3.20;;;;;;;;;;5012405;28;20182;-70
2023/07/03 09:02:44;;;;;;;17.40;2.97;;;17.80;1.00;;;;;;5012791;28;20198;-71
2023/07/03 09:05:29;;;;;;;11.18;2.83;;;17.80;52.20;;;;;;5012254;28;20324;-73
2023/07/03 09:07:59;;;;;;;9.20;2.70;;;18.30;40.80;;;;;;5012536;28;20573;-72
2023/07/03 09:10:47;;;;;;;17.65;2.90;;;18.40;1.00;;;;;;5028907;28;20268;-70
2023/07/03 09:13:26;;;;;;;15.63;2.75;;;18.10;1.00;;;;;;5013612;28;20703;-71
2023/07/03 09:16:13;;;;;;;20.80;2.55;;;18.20;99.90;;;;;;5013556;28;20650;-72
2023/07/03 09:18:46;;;;;;;9.30;2.28;;;16.70;99.90;;;;;;5013505;28;20637;-72
2023/07/03 09:21:11;;;;;;;9.32;2.33;;;18.30;1.00;;;;;;5013796;28;20206;-71
2023/07/03 09:23:44;;;;;;;13.73;3.00;;;18.70;99.90;;;;;;5018406;28;20234;-72
2023/07/03 09:26:10;;;;;;;11.65;2.65;;;;;;;;;;5022934;28;20267;-71
2023/07/03 09:28:39;;;;;;;13.82;2.40;;;18.50;1.00;;;;;;5029909;28;20178;-71
2023/07/03 09:31:04;;;;;;;7.65;2.10;;;18.40;99.90;;;;;;5022505;28;20170;-70
2023/07/03 09:33:30;;;;;;;13.10;2.53;;;18.70;1.00;;;;;;5031450;28;20227;-70
2023/07/03 09:36:00;;;;;;;12.32;2.70;;;18.90;1.00;;;;;;5016473;28;20171;-71
2023/07/03 09:38:27;;;;;;;7.68;2.38;;;;;;;;;;5013281;28;20185;-70
2023/07/03 09:40:54;;;;;;;15.30;2.13;;;19.20;1.00;;;;;;5012336;28;20166;-69
2023/07/03 09:43:23;;;;;;;14.80;3.05;;;19.20;1.00;;;;;;5012840;28;20167;-72
2023/07/03 09:45:51;;;;;;;13.45;2.28;;;19.30;99.90;;;;;;5027400;28;20182;-69
2023/07/03 09:48:25;;;;;;;9.13;1.67;;;19.30;99.90;;;;;;5021457;28;20197;-69
2023/07/03 09:50:51;;;;;;;13.55;1.88;;;;;;;;;;5012381;28;20174;-71
2023/07/03 09:53:21;;;;;;;10.93;2.30;;;19.40;1.00;;;;;;5032167;28;20185;-69
2023/07/03 09:55:57;;;;;;;13.65;2.25;;;19.70;1.00;;;;;;5022504;28;20185;-71
2023/07/03 09:58:25;;;;;;;8.10;2.13;;;19.10;1.00;;;;;;5022963;28;20235;-68
2023/07/03 10:00:54;;;;;;;11.90;2.55;;;18.90;99.90;;;;;;5031255;28;20170;-69
2023/07/03 10:03:29;;;;;;;10.90;2.38;;;18.70;1.00;;;;;;5028481;28;20182;-70
2023/07/03 10:05:57;;;;;;;7.05;1.73;;;18.70;1.00;;;;;;5030032;28;20632;-70
2023/07/03 10:08:27;;;;;;;10.10;1.95;;;18.70;1.00;;;;;;5032586;28;20189;-72
2023/07/03 10:10:56;;;;;;;8.45;2.67;;;19.20;1.00;;;;;;5032475;28;20190;-70
2023/07/03 10:13:29;;;;;;;12.80;2.08;;;19.20;1.00;;;;;;5032496;28;20206;-70
2023/07/03 10:15:57;;;;;;;14.63;2.75;;;19.40;1.00;;;;;;5033736;28;20182;-72
2023/07/03 10:18:27;;;;;;;20.00;3.45;;;19.50;1.00;;;;;;5021212;28;20556;-71
2023/07/03 10:20:54;;;;;;;16.58;3.03;;;19.80;1.00;;;;;;5031846;28;20174;-72
2023/07/03 10:23:26;;;;;;;10.77;2.92;;;20.20;99.90;;;;;;5030945;28;20224;-71
2023/07/03 10:26:09;;;;;;;8.40;2.75;;;20.40;99.90;;;;;;5032216;28;20264;-71
2023/07/03 10:28:39;;;;;;;11.13;3.15;;;20.10;99.90;;;;;;5032294;28;20177;-70
2023/07/03 10:31:09;;;;;;;15.60;2.92;;;20.10;99.90;;;;;;5032041;28;20613;-71
2023/07/03 10:33:41;;;;;;;16.08;3.08;;;20.20;99.90;;;;;;5032070;28;20177;-71
2023/07/03 10:36:11;;;;;;;8.70;2.35;;;19.90;99.90;;;;;;5031641;28;20178;-72
2023/07/03 10:38:54;;;;;;;16.80;3.65;;;19.10;97.50;;;;;;5032166;28;20171;-72
2023/07/03 10:41:45;;;;;;;12.55;3.15;;;18.90;1.00;;;;;;5030207;28;20205;-73
2023/07/03 10:44:17;;;;;;;16.75;2.65;;;18.80;1.00;;;;;;5031926;28;20170;-71
2023/07/03 10:46:50;;;;;;;14.63;3.65;;;18.80;1.00;;;;;;5031653;28;20220;-71
2023/07/03 10:49:25;;;;;;;13.70;3.13;;;19.30;99.90;;;;;;5030466;28;20212;-72
2023/07/03 10:51:55;;;;;;;12.38;2.83;;;19.70;99.90;;;;;;5031618;28;20184;-72
2023/07/03 10:54:29;;;;;;;21.35;3.38;;;19.60;1.60;;;;;;5031478;28;20178;-72
2023/07/03 10:56:57;;;;;;;18.92;3.08;;;20.10;1.00;;;;;;5030036;28;20649;-72
2023/07/03 10:59:28;;;;;;;13.75;2.50;;;20.00;1.00;;;;;;5030257;28;20260;-71
2023/07/03 11:02:34;;;;;;;13.07;2.88;;;19.60;1.00;;;;;;5030843;28;20268;-74
2023/07/03 11:05:22;;;;;;;18.13;3.40;;;19.20;99.90;;;;;;5023788;28;20178;-71
2023/07/03 11:08:18;;;;;;;22.10;3.63;;;18.70;1.00;;;;;;5037999;28;20229;-70
2023/07/03 11:11:01;;;;;;;14.43;2.10;;;18.30;1.00;;;;;;5028145;28;20216;-70
2023/07/03 11:13:38;;;;;;;13.18;2.83;;;17.60;1.00;;;;;;5030542;28;20260;-74
2023/07/03 11:16:14;;;;;;;18.10;3.47;;;17.00;99.90;;;;;;5030421;28;20190;-72
2023/07/03 11:19:01;;;;;;;14.48;2.28;;;17.10;99.90;;;;;;5029992;28;20217;-72
2023/07/03 11:21:54;;;;;;;12.25;2.95;;;17.20;99.90;;;;;;5010250;28;20234;-71
2023/07/03 11:24:26;;;;;;;21.98;3.47;;;17.00;99.90;;;;;;5029795;28;20181;-72
2023/07/03 11:27:20;;;;;;;24.30;3.80;;;17.00;99.90;;;;;;5027695;28;20216;-72
2023/07/03 11:29:46;;;;;;;15.25;3.55;;;17.20;99.90;;;;;;5029731;28;20228;-70
2023/07/03 11:32:13;;;;;;;17.48;3.03;;;17.30;99.90;;;;;;5027927;28;20668;-72
2023/07/03 11:34:40;;;;;;;13.52;2.78;;;17.80;99.90;;;;;;5032416;28;20180;-71
2023/07/03 11:37:34;;;;;;;16.42;3.05;;;19.00;99.90;;;;;;5029436;28;20750;-73
2023/07/03 11:40:25;;;;;;;16.77;3.15;;;18.90;99.90;;;;;;5022389;28;20170;-72
2023/07/03 11:43:17;;;;;;;21.63;3.50;;;19.20;99.90;;;;;;5026525;28;20182;-71
2023/07/03 11:45:55;;;;;;;16.05;3.40;;;19.30;99.90;;;;;;4991433;28;20195;-71
2023/07/03 11:48:28;;;;;;;11.95;3.00;;;18.80;99.90;;;;;;5022855;28;20189;-70
2023/07/03 11:50:59;;;;;;;6.95;1.60;;;18.80;99.90;;;;;;5029853;28;20399;-73
2023/07/03 11:53:31;;;;;;;8.85;2.15;;;18.80;99.90;;;;;;5027432;28;20208;-72
2023/07/03 11:55:57;;;;;;;15.30;2.95;;;18.90;27.60;;;;;;5029759;28;20178;-71
2023/07/03 11:58:29;;;;;;;16.90;2.35;;;18.60;1.00;;;;;;5030542;28;20211;-72
2023/07/03 12:01:22;;;;;;;13.15;3.20;;;19.30;1.00;;;;;;5030747;28;20686;-69
2023/07/03 12:03:55;;;;;;;13.98;2.67;;;19.60;99.90;;;;;;5028499;28;20174;-75
2023/07/03 12:06:39;;;;;;;7.90;1.80;;;19.60;86.50;;;;;;5030167;28;20280;-75
2023/07/03 12:09:20;;;;;;;12.57;2.65;;;19.40;99.90;;;;;;5027932;28;20221;-74
2023/07/03 12:12:00;;;;;;;17.10;2.00;;;19.20;99.90;;;;;;5030271;28;20205;-74
2023/07/03 12:14:46;;;;;;;20.40;3.17;;;19.40;11.30;;;;;;5027314;28;20234;-73
2023/07/03 12:17:29;;;;;;;10.25;2.17;;;19.60;1.00;;;;;;5029345;28;20296;-75
2023/07/03 12:19:57;;;;;;;16.27;2.72;;;19.70;99.90;;;;;;5028635;28;20273;-74
2023/07/03 12:22:27;;;;;;;21.48;3.20;;;19.20;1.00;;;;;;5030288;28;20779;-75
2023/07/03 12:25:05;;;;;;;19.63;3.17;;;19.50;99.90;;;;;;5030033;28;20224;-74
2023/07/03 12:27:31;;;;;;;19.40;4.07;;;19.60;1.00;;;;;;5030459;28;20209;-73
2023/07/03 12:29:57;;;;;;;14.65;2.67;;;19.90;1.00;;;;;;5031455;28;20218;-73
2023/07/03 12:32:31;;;;;;;10.63;2.10;;;20.20;24.40;;;;;;5032736;28;20181;-73
2023/07/03 12:35:10;;;;;;;19.98;3.47;;;;;;;;;;5036515;28;20178;-70
2023/07/03 12:37:42;;;;;;;18.38;3.00;;;19.60;1.00;;;;;;5031903;28;20185;-63
2023/07/03 12:40:08;;;;;;;19.55;2.60;;;20.40;99.90;;;;;;5033766;28;20178;-65
2023/07/03 12:42:34;;;;;;;15.55;3.38;;;20.80;1.00;;;;;;5032068;28;20426;-66
2023/07/03 12:45:17;;;;;;;18.27;3.13;;;21.40;99.90;;;;;;5033258;28;20174;-65
2023/07/03 12:47:43;;;;;;;16.75;2.45;;;21.80;1.00;;;;;;5016014;28;20251;-66
2023/07/03 12:50:14;;;;;;;23.00;2.60;;;21.60;99.90;;;;;;5033887;28;20899;-65
2023/07/03 12:52:39;;;;;;;15.80;2.70;;;21.60;99.90;;;;;;5032494;28;20200;-66
2023/07/03 12:55:06;;;;;;;21.25;3.42;;;21.50;99.90;;;;;;5033770;28;20174;-66
2023/07/03 12:57:34;;;;;;;17.20;3.15;;;21.30;99.90;;;;;;5032895;28;20177;-66
2023/07/03 13:00:01;;;;;;;15.05;2.95;;;21.50;99.90;;;;;;5022238;28;20183;-65
2023/07/03 13:02:29;;;;;;;16.17;2.67;;;22.60;99.90;;;;;;5013828;28;20171;-66
2023/07/03 13:05:18;;;;;;;12.07;2.78;;;22.40;1.00;;;;;;5030459;28;20174;-65
2023/07/03 13:07:44;;;;;;;7.72;1.83;;;20.50;1.00;;;;;;5033178;28;20220;-66